Time;durP1;ratioP1;P1;durP2;ratioP2;P2;SDS_P1;SDS_P2;PMS_P1;PMS_P2;Temp;Humidity;BMP_temperature;BMP_pressure;BME280_temperature;BME280_humidity;BME280_pressure;Samples;Min_cycle;Max_cycle;Signal;HPM_P1;HPM_P2
2022/03/21 00:00:47;;;;;;;8.57;7.70;;;6.40;80.40;;;;;;5013580;28;20474;-44
2022/03/21 00:03:18;;;;;;;10.07;7.90;;;6.50;80.90;;;;;;5013660;28;20479;-45
2022/03/21 00:05:46;;;;;;;7.90;7.03;;;6.20;81.50;;;;;;5013299;28;20452;-44
2022/03/21 00:08:13;;;;;;;9.83;7.90;;;6.20;83.00;;;;;;5013476;28;20475;-44
2022/03/21 00:10:41;;;;;;;9.13;8.23;;;6.50;79.60;;;;;;5012969;28;20537;-45
2022/03/21 00:13:09;;;;;;;10.27;7.70;;;6.40;79.80;;;;;;5013772;28;20873;-46
2022/03/21 00:15:36;;;;;;;9.60;8.30;;;6.40;80.30;;;;;;5013134;28;21004;-46
2022/03/21 00:18:04;;;;;;;10.77;8.33;;;6.50;80.20;;;;;;5013237;28;21027;-44
2022/03/21 00:20:34;;;;;;;10.30;8.83;;;6.60;79.60;;;;;;5013028;28;20489;-45
2022/03/21 00:23:01;;;;;;;8.33;7.50;;;6.50;79.40;;;;;;5013651;28;20472;-44
2022/03/21 00:25:29;;;;;;;9.90;7.33;;;6.30;82.20;;;;;;5013263;28;20447;-47
2022/03/21 00:27:58;;;;;;;9.37;7.37;;;6.40;82.10;;;;;;5013136;28;20556;-44
2022/03/21 00:30:25;;;;;;;9.37;7.70;;;6.50;81.30;;;;;;5012784;28;20450;-47
2022/03/21 00:32:52;;;;;;;8.67;7.20;;;6.60;81.80;;;;;;5012837;28;20919;-44
2022/03/21 00:35:20;;;;;;;11.40;8.73;;;6.60;81.90;;;;;;5012861;28;20544;-48
2022/03/21 00:37:49;;;;;;;10.07;7.37;;;6.50;80.80;;;;;;5013094;28;20472;-47
2022/03/21 00:40:17;;;;;;;8.57;6.97;;;6.20;80.40;;;;;;5012203;28;21190;-44
2022/03/21 00:42:46;;;;;;;9.10;8.20;;;6.00;82.20;;;;;;5012885;28;20527;-44
2022/03/21 00:45:15;;;;;;;9.60;7.40;;;6.00;83.30;;;;;;5012716;28;21207;-44
2022/03/21 00:47:43;;;;;;;9.93;7.50;;;6.10;83.20;;;;;;5012747;28;21032;-47
2022/03/21 00:50:11;;;;;;;8.53;7.63;;;6.00;82.30;;;;;;5012924;28;20686;-44
2022/03/21 00:52:42;;;;;;;10.63;8.00;;;5.90;81.00;;;;;;5012862;28;20909;-45
2022/03/21 00:55:12;;;;;;;9.13;7.50;;;5.90;82.70;;;;;;5012797;28;20865;-45
2022/03/21 00:57:40;;;;;;;8.70;7.30;;;5.90;83.70;;;;;;5012573;28;20542;-45
2022/03/21 01:00:11;;;;;;;8.33;7.33;;;5.90;83.80;;;;;;5012370;28;20443;-45
2022/03/21 01:02:39;;;;;;;8.80;7.47;;;5.90;83.50;;;;;;5012655;28;20505;-45
2022/03/21 01:05:07;;;;;;;8.57;7.50;;;6.00;83.30;;;;;;5011501;28;20486;-45
2022/03/21 01:07:34;;;;;;;9.00;7.10;;;6.20;80.80;;;;;;5013542;28;20511;-45
2022/03/21 01:10:01;;;;;;;13.70;8.77;;;6.20;80.40;;;;;;5012288;28;20485;-44
2022/03/21 01:12:29;;;;;;;10.27;7.60;;;6.20;81.00;;;;;;5012414;28;21055;-44
2022/03/21 01:14:56;;;;;;;8.73;7.17;;;6.20;81.20;;;;;;5012578;28;20479;-46
2022/03/21 01:17:23;;;;;;;8.90;7.43;;;6.30;80.50;;;;;;5012322;28;20551;-45
2022/03/21 01:19:50;;;;;;;10.20;7.73;;;6.20;80.20;;;;;;5012115;28;20956;-45
2022/03/21 01:22:17;;;;;;;7.10;6.40;;;6.00;82.30;;;;;;5012155;28;20542;-44
2022/03/21 01:24:44;;;;;;;10.27;7.47;;;6.10;82.90;;;;;;5012236;28;20898;-47
2022/03/21 01:27:11;;;;;;;8.80;7.90;;;6.20;81.80;;;;;;5011958;28;20490;-45
2022/03/21 01:29:39;;;;;;;8.90;6.50;;;6.20;81.90;;;;;;5011915;28;20484;-44
2022/03/21 01:32:07;;;;;;;10.17;7.80;;;6.20;81.10;;;;;;5012111;28;20534;-48
2022/03/21 01:34:34;;;;;;;9.90;8.30;;;6.10;81.90;;;;;;5011897;28;20566;-44
2022/03/21 01:37:01;;;;;;;9.27;7.30;;;5.80;82.10;;;;;;5011407;28;20471;-45
2022/03/21 01:39:28;;;;;;;7.73;6.93;;;5.60;81.50;;;;;;5011752;28;20968;-44
2022/03/21 01:41:55;;;;;;;10.53;8.27;;;5.50;82.00;;;;;;5011920;28;20439;-45
2022/03/21 01:44:22;;;;;;;9.80;7.40;;;5.70;80.00;;;;;;5012101;28;20471;-44
2022/03/21 01:46:50;;;;;;;9.77;8.13;;;5.70;80.50;;;;;;5011823;28;20543;-45
2022/03/21 01:49:18;;;;;;;11.20;8.27;;;5.80;79.60;;;;;;5011803;28;20538;-49
2022/03/21 01:51:46;;;;;;;9.57;7.60;;;5.80;81.60;;;;;;5011088;28;20454;-45
2022/03/21 01:56:58;;;;;;;11.40;8.17;;;6.10;82.10;;;;;;5011657;28;20501;-44
2022/03/21 01:59:26;;;;;;;8.70;7.33;;;6.20;81.00;;;;;;5011527;28;20948;-44
2022/03/21 02:01:55;;;;;;;8.47;7.57;;;6.20;80.50;;;;;;5011505;28;20532;-44
2022/03/21 02:04:22;;;;;;;10.47;7.73;;;6.30;80.60;;;;;;5011523;28;20523;-45
2022/03/21 02:06:50;;;;;;;9.70;8.80;;;6.30;80.90;;;;;;5010982;28;20550;-49
2022/03/21 02:09:16;;;;;;;8.53;7.63;;;6.20;81.50;;;;;;5011358;28;20489;-44
2022/03/21 02:11:43;;;;;;;8.57;7.70;;;6.40;79.60;;;;;;5011564;28;20879;-45
2022/03/21 02:14:11;;;;;;;11.07;7.70;;;6.50;79.00;;;;;;5011556;28;20570;-44
2022/03/21 02:16:39;;;;;;;9.37;8.27;;;6.60;79.10;;;;;;5011282;28;20443;-44
2022/03/21 02:19:21;;;;;;;7.63;6.83;;;6.70;79.00;;;;;;5011286;28;20945;-44
2022/03/21 02:21:59;;;;;;;9.30;7.77;;;6.70;79.00;;;;;;5011406;28;20486;-44
2022/03/21 02:24:41;;;;;;;9.23;7.20;;;6.60;78.90;;;;;;5011341;28;20439;-44
2022/03/21 02:27:09;;;;;;;8.83;7.93;;;6.50;79.00;;;;;;5011329;28;20501;-44
2022/03/21 02:29:38;;;;;;;7.80;7.00;;;6.40;79.40;;;;;;5011398;28;20530;-44
2022/03/21 02:32:07;;;;;;;9.63;7.23;;;6.40;79.60;;;;;;5011412;28;20473;-44
2022/03/21 02:34:38;;;;;;;9.40;7.73;;;6.20;80.30;;;;;;5011250;28;20574;-44
2022/03/21 02:37:07;;;;;;;8.37;6.80;;;6.20;81.60;;;;;;5010964;28;20497;-45
2022/03/21 02:39:36;;;;;;;8.73;6.93;;;6.20;81.20;;;;;;5011202;28;20534;-44
2022/03/21 02:42:04;;;;;;;10.60;7.23;;;6.20;81.60;;;;;;5011270;28;20534;-47
2022/03/21 02:44:35;;;;;;;7.43;6.73;;;6.20;81.90;;;;;;5011090;28;20479;-45
2022/03/21 02:47:02;;;;;;;8.20;7.40;;;6.10;82.00;;;;;;5011409;28;20502;-44
2022/03/21 02:49:29;;;;;;;8.87;6.57;;;5.90;83.30;;;;;;5010963;28;20501;-44
2022/03/21 02:51:59;;;;;;;11.40;7.30;;;5.90;82.50;;;;;;5010952;28;20479;-44
2022/03/21 02:54:27;;;;;;;9.90;6.83;;;5.90;81.60;;;;;;5011224;28;20549;-45
2022/03/21 02:56:54;;;;;;;9.00;7.73;;;5.90;82.50;;;;;;5011186;28;20467;-47
2022/03/21 02:59:21;;;;;;;9.50;7.10;;;5.80;82.20;;;;;;5010869;28;20526;-45
2022/03/21 03:01:51;;;;;;;7.50;6.60;;;5.70;82.20;;;;;;5011136;28;20475;-47
2022/03/21 03:04:18;;;;;;;8.83;6.63;;;5.60;82.20;;;;;;5014507;28;20982;-44
2022/03/21 03:06:45;;;;;;;7.73;7.03;;;5.40;83.10;;;;;;5014192;28;20994;-45
2022/03/21 03:09:12;;;;;;;7.73;6.80;;;5.40;83.80;;;;;;5014583;28;20489;-44
2022/03/21 03:11:39;;;;;;;7.37;6.57;;;5.50;83.80;;;;;;5014508;28;20526;-48
2022/03/21 03:14:07;;;;;;;9.70;7.30;;;5.50;84.40;;;;;;5014487;28;20514;-44
2022/03/21 03:16:34;;;;;;;8.63;7.73;;;5.50;85.00;;;;;;5014579;28;20481;-45
2022/03/21 03:19:02;;;;;;;8.23;7.17;;;5.40;83.60;;;;;;5014496;28;20522;-45
2022/03/21 03:21:32;;;;;;;10.73;7.77;;;5.30;82.80;;;;;;5014363;28;20877;-44
2022/03/21 03:24:00;;;;;;;11.30;6.90;;;5.00;83.30;;;;;;5014459;28;21001;-44
2022/03/21 03:26:27;;;;;;;11.00;7.30;;;4.90;84.90;;;;;;5014210;28;20475;-44
2022/03/21 03:28:54;;;;;;;8.10;6.30;;;5.00;85.60;;;;;;5014198;28;20534;-47
2022/03/21 03:31:21;;;;;;;8.53;7.70;;;5.00;85.50;;;;;;5014237;28;20449;-45
2022/03/21 03:33:49;;;;;;;9.60;7.10;;;5.20;85.50;;;;;;5014247;28;21000;-44
2022/03/21 03:36:17;;;;;;;9.03;7.13;;;5.30;85.60;;;;;;5013712;28;20447;-44
2022/03/21 03:38:45;;;;;;;9.83;6.57;;;5.40;85.00;;;;;;5014054;28;20498;-47
2022/03/21 03:41:13;;;;;;;9.33;7.43;;;5.30;84.80;;;;;;5013808;28;20948;-49
2022/03/21 03:43:40;;;;;;;10.27;7.80;;;5.30;84.40;;;;;;5013898;28;21035;-44
2022/03/21 03:46:07;;;;;;;10.10;7.30;;;5.40;85.30;;;;;;5013875;28;20531;-47
2022/03/21 03:48:34;;;;;;;9.20;6.83;;;5.40;83.60;;;;;;5013965;28;20494;-44
2022/03/21 03:51:03;;;;;;;8.10;7.27;;;5.40;84.70;;;;;;5013814;28;20546;-44
2022/03/21 03:53:31;;;;;;;8.60;6.47;;;5.30;85.00;;;;;;5013865;28;20557;-44
2022/03/21 03:55:58;;;;;;;7.80;6.90;;;5.20;85.50;;;;;;5013695;28;21008;-45
2022/03/21 03:58:25;;;;;;;9.70;6.80;;;5.10;85.60;;;;;;5014064;28;20783;-44
2022/03/21 04:00:52;;;;;;;10.80;7.07;;;5.00;86.40;;;;;;5013957;28;20526;-44
2022/03/21 04:06:03;;;;;;;7.10;6.30;;;5.10;84.90;;;;;;5013177;28;20420;-44
2022/03/21 04:08:32;;;;;;;8.07;6.80;;;5.20;83.80;;;;;;5013357;28;20513;-45
2022/03/21 04:10:59;;;;;;;9.80;7.77;;;5.40;83.30;;;;;;5013083;28;20486;-46
2022/03/21 04:13:26;;;;;;;8.33;6.70;;;5.40;83.40;;;;;;5013276;28;20557;-44
2022/03/21 04:15:52;;;;;;;10.73;7.67;;;5.50;82.70;;;;;;5013071;28;20482;-48
2022/03/21 04:18:20;;;;;;;8.57;6.40;;;5.60;82.30;;;;;;5013513;28;20929;-44
2022/03/21 04:20:50;;;;;;;7.73;6.50;;;5.60;83.70;;;;;;5013287;28;20453;-44
2022/03/21 04:23:17;;;;;;;7.60;6.70;;;5.50;85.10;;;;;;5013372;28;20451;-46
2022/03/21 04:25:46;;;;;;;7.50;6.17;;;5.40;84.30;;;;;;5013185;28;20594;-44
2022/03/21 04:28:14;;;;;;;9.03;6.70;;;5.20;85.30;;;;;;5013129;28;20545;-44
2022/03/21 04:30:41;;;;;;;8.23;7.20;;;5.10;85.50;;;;;;5012934;28;20483;-44
2022/03/21 04:33:10;;;;;;;9.47;7.00;;;4.90;85.00;;;;;;5013174;28;20482;-45
2022/03/21 04:35:37;;;;;;;10.73;7.27;;;4.90;86.20;;;;;;5012516;28;20450;-44
2022/03/21 04:38:04;;;;;;;7.40;6.60;;;4.70;86.50;;;;;;5013153;28;20518;-44
2022/03/21 04:40:31;;;;;;;9.43;6.90;;;4.70;87.20;;;;;;5012647;28;20483;-44
2022/03/21 04:42:59;;;;;;;9.43;7.10;;;4.60;87.00;;;;;;5013137;28;20543;-44
2022/03/21 04:45:26;;;;;;;10.30;8.13;;;4.60;87.00;;;;;;5012921;28;20867;-44
2022/03/21 04:47:53;;;;;;;9.00;7.30;;;4.40;86.50;;;;;;5013106;28;20470;-46
2022/03/21 04:50:20;;;;;;;7.57;6.50;;;4.40;87.20;;;;;;5012852;28;20447;-44
2022/03/21 04:52:47;;;;;;;14.80;6.77;;;4.70;87.30;;;;;;5012710;28;20479;-47
2022/03/21 04:55:15;;;;;;;9.57;6.97;;;4.70;87.50;;;;;;5012547;28;21022;-44
2022/03/21 04:57:42;;;;;;;7.50;6.53;;;4.90;86.40;;;;;;5012823;28;20473;-44
2022/03/21 05:00:13;;;;;;;13.37;9.03;;;4.80;86.10;;;;;;5012293;28;20474;-49
2022/03/21 05:02:41;;;;;;;12.30;8.53;;;4.90;85.40;;;;;;5012553;28;20451;-48
2022/03/21 05:05:09;;;;;;;9.83;7.70;;;4.80;86.20;;;;;;5012119;28;20446;-46
2022/03/21 05:07:40;;;;;;;8.70;7.80;;;4.80;86.20;;;;;;5012600;28;20481;-44
2022/03/21 05:10:08;;;;;;;8.27;6.70;;;4.90;85.70;;;;;;5011839;28;20454;-44
2022/03/21 05:12:35;;;;;;;8.17;6.43;;;5.10;85.00;;;;;;5012590;28;20447;-44
2022/03/21 05:15:04;;;;;;;12.00;8.10;;;5.20;84.50;;;;;;5012634;28;20571;-47
2022/03/21 05:17:32;;;;;;;22.80;20.80;;;5.20;85.50;;;;;;5012374;28;20467;-45
2022/03/21 05:19:59;;;;;;;12.73;11.60;;;5.00;86.30;;;;;;5012232;28;20451;-44
2022/03/21 05:22:26;;;;;;;16.27;14.87;;;4.90;86.70;;;;;;5012185;28;20530;-44
2022/03/21 05:35:55;;;;;;;11.77;8.10;;;4.70;88.70;;;;;;5011839;28;20418;-44
2022/03/21 05:38:24;;;;;;;9.77;7.73;;;4.70;88.50;;;;;;5012015;28;20458;-44
2022/03/21 05:40:53;;;;;;;7.97;6.97;;;4.80;88.20;;;;;;5011747;28;20439;-44
2022/03/21 05:43:20;;;;;;;7.97;6.90;;;4.80;88.80;;;;;;5011917;28;20471;-44
2022/03/21 05:45:49;;;;;;;11.10;8.67;;;4.70;87.50;;;;;;5012042;28;20482;-44
2022/03/21 05:51:02;;;;;;;9.07;7.77;;;4.90;87.90;;;;;;5011593;28;20434;-44
2022/03/21 05:53:29;;;;;;;9.27;6.77;;;4.90;86.40;;;;;;5011698;28;20546;-46
2022/03/21 05:55:58;;;;;;;9.47;6.60;;;5.10;86.60;;;;;;5011507;28;21000;-44
2022/03/21 05:58:25;;;;;;;7.50;6.80;;;5.20;86.10;;;;;;5011733;28;20849;-45
2022/03/21 06:00:52;;;;;;;11.97;7.07;;;5.30;86.00;;;;;;5011362;28;20479;-44
2022/03/21 06:03:20;;;;;;;7.63;6.37;;;5.30;86.60;;;;;;5011743;28;20451;-49
2022/03/21 06:05:47;;;;;;;8.00;6.80;;;5.30;87.90;;;;;;5011455;28;20478;-47
2022/03/21 06:08:14;;;;;;;7.83;6.70;;;4.90;87.20;;;;;;5011183;28;21020;-44
2022/03/21 06:10:42;;;;;;;8.63;6.47;;;4.70;88.50;;;;;;5011254;28;21028;-44
2022/03/21 06:13:09;;;;;;;7.40;6.20;;;4.60;89.90;;;;;;5011572;28;20511;-46
2022/03/21 06:15:36;;;;;;;8.50;6.80;;;4.70;90.80;;;;;;5011325;28;20479;-49
2022/03/21 06:18:09;;;;;;;8.80;7.37;;;4.90;90.30;;;;;;5011280;28;20903;-44
2022/03/21 06:20:39;;;;;;;10.00;6.93;;;5.00;88.80;;;;;;5011445;28;20505;-48
2022/03/21 06:23:06;;;;;;;11.73;7.10;;;4.90;89.70;;;;;;5011466;28;20454;-46
2022/03/21 06:25:33;;;;;;;7.00;5.70;;;4.80;89.70;;;;;;5011470;28;20475;-44
2022/03/21 06:28:01;;;;;;;8.47;6.80;;;4.80;89.50;;;;;;5011209;28;20494;-44
2022/03/21 06:30:29;;;;;;;6.70;6.00;;;4.80;89.50;;;;;;5011329;28;20443;-44
2022/03/21 06:32:55;;;;;;;8.80;6.90;;;5.00;90.50;;;;;;5011598;28;20448;-45
2022/03/21 06:35:23;;;;;;;7.77;6.00;;;5.20;90.10;;;;;;5010773;28;20561;-44
2022/03/21 06:37:51;;;;;;;7.33;5.90;;;5.20;90.70;;;;;;5013031;28;20498;-47
2022/03/21 06:40:18;;;;;;;6.40;5.80;;;5.30;90.50;;;;;;5014862;28;20932;-44
2022/03/21 06:42:45;;;;;;;7.40;6.10;;;5.50;90.80;;;;;;5015173;28;20485;-44
2022/03/21 06:45:12;;;;;;;8.87;6.70;;;5.60;90.70;;;;;;5015361;28;20477;-47
2022/03/21 06:47:39;;;;;;;6.73;5.90;;;5.60;91.00;;;;;;5014996;28;20499;-44
2022/03/21 06:50:07;;;;;;;8.63;6.40;;;5.60;91.10;;;;;;5015027;28;20974;-44
2022/03/21 06:52:35;;;;;;;8.13;6.90;;;5.70;91.50;;;;;;5015272;28;20451;-44
2022/03/21 06:55:05;;;;;;;9.03;8.23;;;5.80;91.40;;;;;;5014752;28;20880;-47
2022/03/21 06:57:32;;;;;;;9.90;7.27;;;5.90;90.70;;;;;;5014904;28;20498;-45
2022/03/21 07:00:00;;;;;;;7.40;6.70;;;5.60;90.30;;;;;;5014568;28;20530;-44
2022/03/21 07:02:28;;;;;;;11.20;8.37;;;5.30;90.10;;;;;;5014668;28;20451;-48
2022/03/21 07:04:56;;;;;;;7.10;6.33;;;5.40;91.00;;;;;;5014668;28;20570;-47
2022/03/21 07:07:23;;;;;;;12.23;7.90;;;5.60;91.00;;;;;;5015733;28;20474;-44
2022/03/21 07:09:50;;;;;;;12.77;8.60;;;5.70;90.60;;;;;;5014271;28;20539;-44
2022/03/21 07:12:19;;;;;;;10.17;8.73;;;5.90;91.90;;;;;;5014619;28;20856;-44
2022/03/21 07:14:46;;;;;;;10.53;8.77;;;6.10;92.50;;;;;;5014585;28;20484;-44
2022/03/21 07:17:13;;;;;;;11.77;10.43;;;6.10;92.70;;;;;;5014442;28;20533;-44
2022/03/21 07:19:40;;;;;;;12.33;9.23;;;6.30;91.50;;;;;;5014452;28;20474;-47
2022/03/21 07:22:07;;;;;;;17.70;8.47;;;6.40;91.10;;;;;;5014404;28;20828;-47
2022/03/21 07:24:34;;;;;;;11.23;9.73;;;6.30;91.70;;;;;;5012702;28;20521;-47
2022/03/21 07:27:00;;;;;;;14.47;9.90;;;6.50;91.40;;;;;;5014285;28;20477;-46
2022/03/21 07:29:29;;;;;;;14.40;10.30;;;6.40;91.70;;;;;;5014217;28;20475;-47
2022/03/21 07:31:56;;;;;;;16.63;11.73;;;6.30;91.90;;;;;;5013962;28;20526;-47
2022/03/21 07:34:23;;;;;;;16.60;11.47;;;6.50;92.00;;;;;;5013920;28;20491;-47
2022/03/21 07:36:50;;;;;;;15.80;11.17;;;6.70;92.30;;;;;;5014549;28;20467;-44
2022/03/21 07:39:17;;;;;;;15.63;11.10;;;6.80;93.00;;;;;;5013662;28;20970;-44
2022/03/21 07:41:45;;;;;;;18.90;13.20;;;6.90;93.00;;;;;;5014343;28;20539;-44
2022/03/21 07:47:17;;;;;;;18.03;12.47;;;6.80;92.80;;;;;;5013938;28;20447;-44
2022/03/21 07:47:17;;;;;;;25.93;14.50;;;6.80;92.50;;;;;;5013738;28;20467;-44
2022/03/21 07:49:45;;;;;;;21.83;14.53;;;6.90;92.60;;;;;;5012969;28;20458;-45
2022/03/21 07:52:12;;;;;;;18.33;14.20;;;7.00;92.00;;;;;;5014096;28;20447;-44
2022/03/21 07:54:40;;;;;;;16.83;12.13;;;7.10;92.50;;;;;;5013828;28;20574;-45
2022/03/21 07:57:08;;;;;;;18.33;10.90;;;7.20;92.70;;;;;;5013705;28;20467;-44
2022/03/21 07:59:35;;;;;;;18.80;12.03;;;7.30;92.70;;;;;;5013573;28;20471;-45
2022/03/21 08:02:05;;;;;;;16.53;12.20;;;7.30;92.50;;;;;;5013999;28;20447;-44
2022/03/21 08:04:32;;;;;;;17.10;12.03;;;7.40;91.80;;;;;;5013621;28;20455;-45
2022/03/21 08:06:59;;;;;;;22.23;12.43;;;7.50;91.60;;;;;;5013038;28;20533;-44
2022/03/21 08:09:27;;;;;;;12.77;10.60;;;7.70;91.40;;;;;;5013456;28;20494;-45
2022/03/21 08:11:54;;;;;;;14.00;10.53;;;7.70;90.90;;;;;;5013143;28;20454;-44
2022/03/21 08:14:21;;;;;;;18.07;12.63;;;7.80;90.20;;;;;;5013477;28;20439;-44
2022/03/21 08:16:48;;;;;;;10.80;9.13;;;8.00;90.60;;;;;;5013409;28;20498;-44
2022/03/21 08:19:17;;;;;;;9.50;7.50;;;8.00;88.40;;;;;;5013293;28;20486;-45
2022/03/21 08:21:44;;;;;;;8.43;7.50;;;8.10;87.40;;;;;;5013228;28;20494;-44
2022/03/21 08:24:13;;;;;;;9.67;7.90;;;8.10;86.50;;;;;;5013290;28;20522;-44
2022/03/21 08:26:40;;;;;;;11.67;7.80;;;8.20;86.40;;;;;;5013299;28;20949;-45
2022/03/21 08:29:08;;;;;;;9.07;8.17;;;8.40;84.10;;;;;;5013336;28;20455;-45
2022/03/21 08:31:35;;;;;;;19.90;14.63;;;8.40;81.70;;;;;;5013175;28;20443;-44
2022/03/21 08:34:04;;;;;;;12.90;9.43;;;8.40;83.40;;;;;;5013129;28;20482;-45
2022/03/21 08:36:33;;;;;;;10.37;8.93;;;8.50;81.10;;;;;;5012987;28;20490;-45
2022/03/21 08:39:00;;;;;;;10.83;8.20;;;8.40;81.70;;;;;;5012798;28;20447;-43
2022/03/21 08:41:27;;;;;;;9.00;8.03;;;8.30;79.40;;;;;;5013103;28;20447;-45
2022/03/21 08:43:54;;;;;;;9.30;8.17;;;8.30;80.20;;;;;;5012800;28;20869;-44
2022/03/21 08:46:22;;;;;;;13.40;8.20;;;8.30;78.90;;;;;;5013280;28;20945;-44
2022/03/21 08:51:35;;;;;;;9.70;7.87;;;8.50;77.90;;;;;;5012841;28;20421;-45
2022/03/21 08:54:03;;;;;;;7.60;6.90;;;8.70;75.70;;;;;;5012843;28;20451;-45
2022/03/21 08:56:30;;;;;;;8.40;6.80;;;8.70;75.10;;;;;;5012414;28;20483;-45
2022/03/21 08:58:57;;;;;;;8.33;7.63;;;8.80;72.60;;;;;;5012608;28;20530;-44
2022/03/21 09:01:24;;;;;;;11.30;7.80;;;8.80;73.80;;;;;;5012436;28;20536;-45
2022/03/21 09:03:52;;;;;;;12.93;8.63;;;8.70;73.70;;;;;;5012236;28;20860;-44
2022/03/21 09:06:20;;;;;;;8.47;7.27;;;8.80;72.90;;;;;;5012207;28;20530;-45
2022/03/21 09:08:49;;;;;;;9.70;7.60;;;8.80;73.40;;;;;;5012422;28;20482;-45
2022/03/21 09:11:17;;;;;;;10.10;7.60;;;8.90;72.10;;;;;;5011803;28;20479;-45
2022/03/21 09:13:45;;;;;;;9.37;7.47;;;9.00;72.20;;;;;;5012315;28;20458;-45
2022/03/21 09:16:13;;;;;;;8.87;7.83;;;9.10;70.20;;;;;;5012453;28;20816;-45
2022/03/21 09:18:40;;;;;;;9.23;8.30;;;9.10;69.90;;;;;;5012304;28;20467;-45
2022/03/21 09:21:07;;;;;;;11.60;7.10;;;9.10;69.30;;;;;;5012513;28;20530;-45
2022/03/21 09:23:35;;;;;;;9.90;7.60;;;9.30;71.30;;;;;;5012068;28;20443;-45
2022/03/21 09:26:04;;;;;;;8.73;7.13;;;9.10;69.00;;;;;;5012364;28;20562;-45
2022/03/21 09:28:31;;;;;;;7.47;6.60;;;9.20;70.30;;;;;;5011780;28;20876;-45
2022/03/21 09:30:58;;;;;;;7.90;7.10;;;9.30;67.50;;;;;;5012068;28;20482;-45
2022/03/21 09:33:26;;;;;;;8.83;6.90;;;9.50;67.70;;;;;;5012058;28;20443;-45
2022/03/21 09:35:53;;;;;;;8.47;7.60;;;9.70;68.30;;;;;;5011916;28;20483;-45
2022/03/21 09:38:20;;;;;;;9.23;7.87;;;9.90;69.10;;;;;;5011410;28;20503;-45
2022/03/21 09:40:49;;;;;;;8.77;7.80;;;10.10;66.80;;;;;;5011927;28;20489;-45
2022/03/21 09:43:17;;;;;;;9.40;7.43;;;10.30;65.10;;;;;;5012011;28;20961;-45
2022/03/21 09:45:45;;;;;;;7.30;6.60;;;10.40;64.00;;;;;;5011866;28;20435;-45
2022/03/21 09:48:16;;;;;;;9.60;8.30;;;10.60;64.70;;;;;;5011898;28;20580;-45
2022/03/21 09:50:45;;;;;;;8.27;7.30;;;10.70;63.90;;;;;;5011445;28;20963;-45
2022/03/21 09:53:14;;;;;;;8.90;7.17;;;10.90;63.40;;;;;;5011803;28;20453;-45
2022/03/21 09:55:42;;;;;;;8.10;7.03;;;10.80;61.50;;;;;;5011495;28;20506;-45
2022/03/21 09:58:10;;;;;;;11.40;7.70;;;11.00;63.00;;;;;;5011684;28;20506;-45
2022/03/21 10:00:40;;;;;;;8.03;7.23;;;11.20;65.60;;;;;;5011381;28;20952;-45
2022/03/21 10:03:08;;;;;;;10.90;7.33;;;11.30;64.70;;;;;;5012063;28;20534;-46
2022/03/21 10:05:37;;;;;;;8.80;7.40;;;11.40;63.60;;;;;;5011178;28;20474;-46
2022/03/21 10:08:19;;;;;;;9.00;8.07;;;11.40;64.00;;;;;;5011488;28;20470;-45
2022/03/21 10:10:57;;;;;;;10.23;8.53;;;11.50;62.00;;;;;;5009642;28;20466;-45
2022/03/21 10:13:26;;;;;;;8.40;7.50;;;11.60;61.40;;;;;;5010755;28;20526;-45
2022/03/21 10:16:09;;;;;;;10.63;9.03;;;11.80;60.00;;;;;;5011672;28;20526;-45
2022/03/21 10:18:36;;;;;;;8.73;7.90;;;11.90;60.20;;;;;;5011638;28;20491;-45
2022/03/21 10:21:11;;;;;;;10.13;9.13;;;12.00;58.00;;;;;;5011387;28;20474;-45
2022/03/21 10:23:38;;;;;;;10.17;8.00;;;12.20;59.10;;;;;;5010022;28;20453;-45
2022/03/21 10:26:25;;;;;;;12.10;8.90;;;12.20;57.10;;;;;;5011329;28;20885;-45
2022/03/21 10:28:53;;;;;;;8.50;7.53;;;12.30;57.10;;;;;;5010994;28;20967;-44
2022/03/21 10:31:36;;;;;;;8.50;7.60;;;12.30;56.40;;;;;;5011328;28;20443;-46
2022/03/21 10:34:05;;;;;;;10.47;8.07;;;12.50;60.00;;;;;;5011201;28;20533;-45
2022/03/21 10:36:31;;;;;;;8.27;7.47;;;12.60;57.60;;;;;;5011381;28;20561;-45
2022/03/21 10:39:08;;;;;;;9.33;7.70;;;12.60;55.90;;;;;;5011440;28;20854;-45
2022/03/21 10:41:36;;;;;;;9.27;8.03;;;12.40;56.20;;;;;;5011335;28;20451;-45
2022/03/21 10:44:03;;;;;;;8.70;7.20;;;12.40;57.00;;;;;;5011159;28;20954;-45
2022/03/21 10:46:30;;;;;;;9.50;7.93;;;12.40;57.50;;;;;;5010388;28;20478;-46
2022/03/21 10:49:06;;;;;;;8.77;7.90;;;12.60;60.90;;;;;;5010599;28;20467;-45
2022/03/21 10:51:49;;;;;;;9.13;7.63;;;12.70;57.20;;;;;;5010979;28;20446;-45
2022/03/21 10:54:36;;;;;;;10.47;7.90;;;12.60;58.00;;;;;;5010120;28;20975;-45
2022/03/21 10:57:03;;;;;;;8.33;7.43;;;12.60;59.80;;;;;;5010336;28;21047;-45
2022/03/21 10:59:30;;;;;;;10.67;7.30;;;13.00;59.20;;;;;;5010499;28;21001;-45
2022/03/21 11:02:11;;;;;;;8.67;7.60;;;13.30;56.90;;;;;;5010878;28;20542;-45
2022/03/21 11:04:42;;;;;;;9.97;8.53;;;13.30;56.70;;;;;;5010595;28;20529;-45
2022/03/21 11:07:12;;;;;;;12.13;8.40;;;13.40;55.80;;;;;;5010568;28;20478;-45
2022/03/21 11:09:40;;;;;;;9.87;7.47;;;13.50;56.30;;;;;;5009986;28;20966;-45
2022/03/21 11:12:10;;;;;;;11.17;7.57;;;13.70;57.20;;;;;;5010972;28;20482;-45
2022/03/21 11:14:39;;;;;;;10.50;8.40;;;13.80;55.80;;;;;;5011284;28;20482;-45
2022/03/21 11:17:08;;;;;;;12.13;8.60;;;13.80;57.00;;;;;;5010743;28;20487;-45
2022/03/21 11:19:36;;;;;;;7.70;6.90;;;13.70;55.90;;;;;;5010600;28;21007;-45
2022/03/21 11:22:05;;;;;;;8.47;7.60;;;13.70;54.70;;;;;;5011187;28;20942;-45
2022/03/21 11:24:34;;;;;;;9.70;7.60;;;13.50;54.50;;;;;;5013253;28;20800;-45
2022/03/21 11:27:20;;;;;;;9.10;7.50;;;13.50;55.10;;;;;;5014440;28;20466;-45
2022/03/21 11:29:58;;;;;;;9.47;8.30;;;13.60;57.60;;;;;;5014220;28;20447;-45
2022/03/21 11:32:37;;;;;;;9.83;7.80;;;13.80;57.40;;;;;;5013812;28;20942;-45
2022/03/21 11:35:10;;;;;;;9.20;8.30;;;13.80;55.50;;;;;;5023530;28;20816;-46
2022/03/21 11:37:39;;;;;;;10.83;8.03;;;13.80;56.40;;;;;;5022543;28;20995;-45
2022/03/21 11:40:29;;;;;;;11.10;7.70;;;13.80;58.20;;;;;;5023598;28;20438;-45
2022/03/21 11:42:57;;;;;;;9.67;7.50;;;14.00;57.60;;;;;;5023815;28;20530;-45
2022/03/21 11:45:25;;;;;;;11.33;7.90;;;14.30;56.60;;;;;;5023146;28;20489;-45
2022/03/21 11:48:16;;;;;;;7.90;7.10;;;14.40;58.80;;;;;;5017803;28;20487;-46
2022/03/21 11:50:43;;;;;;;9.57;7.57;;;14.50;53.60;;;;;;5012594;28;20471;-45
2022/03/21 11:53:13;;;;;;;20.53;8.13;;;14.50;54.80;;;;;;5013972;28;20478;-45
2022/03/21 11:55:41;;;;;;;39.77;35.57;;;14.50;54.10;;;;;;5012501;28;20533;-46
2022/03/21 11:58:43;;;;;;;12.30;7.60;;;14.60;52.80;;;;;;5013437;28;20463;-45
2022/03/21 12:01:12;;;;;;;12.10;7.27;;;14.70;55.50;;;;;;5013196;28;20521;-45
2022/03/21 12:03:41;;;;;;;9.37;7.70;;;14.80;53.40;;;;;;5014046;28;20490;-46
2022/03/21 12:06:24;;;;;;;11.10;6.20;;;14.90;51.00;;;;;;5013056;28;20443;-45
2022/03/21 12:08:58;;;;;;;33.03;21.33;;;14.90;52.20;;;;;;5013755;28;20507;-46
2022/03/21 12:12:00;;;;;;;7.60;6.03;;;14.90;52.90;;;;;;5013382;28;20870;-45
2022/03/21 12:14:43;;;;;;;7.30;5.63;;;15.00;50.70;;;;;;5013244;28;20951;-46
2022/03/21 12:17:38;;;;;;;10.47;5.40;;;15.10;49.40;;;;;;5012162;28;20574;-46
2022/03/21 12:20:10;;;;;;;7.80;5.50;;;15.20;50.20;;;;;;5012501;28;20442;-45
2022/03/21 12:22:39;;;;;;;7.80;5.70;;;15.20;47.60;;;;;;5013236;28;20443;-46
2022/03/21 12:25:10;;;;;;;5.80;5.20;;;15.20;49.00;;;;;;5013265;28;20439;-45
2022/03/21 12:27:39;;;;;;;8.67;5.80;;;15.20;49.20;;;;;;5013580;28;20490;-45
2022/03/21 12:30:38;;;;;;;8.20;4.90;;;15.40;51.30;;;;;;5012938;28;20463;-45
2022/03/21 12:33:27;;;;;;;5.90;5.13;;;15.30;46.20;;;;;;4989772;28;20539;-45
2022/03/21 12:36:08;;;;;;;6.67;4.83;;;15.30;45.80;;;;;;5012116;28;20446;-46
2022/03/21 12:38:37;;;;;;;5.90;4.53;;;15.30;44.80;;;;;;5012234;28;20466;-46
2022/03/21 12:41:08;;;;;;;7.67;5.20;;;15.30;45.10;;;;;;5012868;28;20454;-46
2022/03/21 12:43:52;;;;;;;4.53;4.13;;;15.30;47.10;;;;;;5012651;28;20500;-46
2022/03/21 12:46:22;;;;;;;6.30;4.90;;;15.30;44.10;;;;;;5012983;28;20448;-46
2022/03/21 12:48:51;;;;;;;5.87;5.20;;;15.30;45.00;;;;;;5012573;28;20463;-45
2022/03/21 12:51:28;;;;;;;6.97;5.20;;;15.50;48.10;;;;;;5012946;28;20447;-46
2022/03/21 12:53:57;;;;;;;8.03;6.00;;;15.50;44.70;;;;;;5013071;28;20475;-46
2022/03/21 12:56:27;;;;;;;7.40;5.20;;;15.60;45.20;;;;;;5012939;28;20474;-46
2022/03/21 12:59:01;;;;;;;6.70;4.90;;;15.60;45.80;;;;;;5012269;28;20513;-46
2022/03/21 13:01:29;;;;;;;5.20;4.40;;;15.60;46.40;;;;;;5012575;28;20898;-45
2022/03/21 13:12:35;;;;;;;7.93;6.17;;;15.50;45.40;;;;;;5012610;28;20423;-46
2022/03/21 13:15:06;;;;;;;11.37;9.63;;;15.60;46.40;;;;;;5012537;28;20492;-45
2022/03/21 13:17:44;;;;;;;13.50;10.37;;;15.70;47.20;;;;;;5012098;28;20514;-47
2022/03/21 13:20:12;;;;;;;11.57;9.20;;;15.70;46.90;;;;;;5011748;28;20505;-46
2022/03/21 13:22:40;;;;;;;6.63;5.27;;;15.80;47.50;;;;;;5012261;28;20776;-46
2022/03/21 13:25:22;;;;;;;5.77;4.70;;;15.90;46.70;;;;;;5012093;28;20940;-46
2022/03/21 13:27:51;;;;;;;6.40;5.17;;;15.90;46.40;;;;;;5012252;28;20502;-46
2022/03/21 13:30:18;;;;;;;5.33;4.10;;;15.90;47.40;;;;;;5011686;28;20443;-46
2022/03/21 13:32:46;;;;;;;9.00;6.50;;;15.90;46.10;;;;;;5011933;28;20817;-46